CSW631 LWSK-LSZH
Flight info
| Callsign | CSW631 |
|---|---|
| Flight time | 1h 50m |
| Altitude | 36000 |
| Route | GOSTI2D GOSTI DCT MAVAR DCT ALELU DCT UTOMO DCT RUDIK DCT ERKIR DCT KPT L856 NEGRA NEGRA2A |
| Aircraft | A320/M-SDE1FGHIJ1RWXY/SB1 |
Departure
| Time | 2026-04-30 19:20 |
|---|---|
| Airport | Skopje International Airport (LWSK) |
Arrival
| Time | 2026-04-30 21:11 |
|---|---|
| Airport | Zürich Airport (LSZH) |
| Time | Latitude | Longitude | Altitude | Speed | Heading |
|---|---|---|---|---|---|
| 2026-04-30 18:57 | 41.96106 | 21.62581 | 836 ft | 0 kts | 76° |
| 2026-04-30 19:09 | 41.96104 | 21.62567 | 793 ft | 4 kts | 70° |
| 2026-04-30 19:09 | 41.96091 | 21.62537 | 793 ft | 4 kts | 38° |
| 2026-04-30 19:09 | 41.96069 | 21.62524 | 793 ft | 3 kts | 349° |
| 2026-04-30 19:10 | 41.96065 | 21.62525 | 793 ft | 0 kts | 346° |
| 2026-04-30 19:11 | 41.96075 | 21.62522 | 793 ft | 6 kts | 348° |
| 2026-04-30 19:12 | 41.96124 | 21.62499 | 793 ft | 6 kts | 310° |
| 2026-04-30 19:12 | 41.96119 | 21.62448 | 792 ft | 6 kts | 238° |
| 2026-04-30 19:12 | 41.96081 | 21.62441 | 791 ft | 5 kts | 168° |
| 2026-04-30 19:13 | 41.96046 | 21.62452 | 791 ft | 0 kts | 166° |
| 2026-04-30 19:13 | 41.95961 | 21.62485 | 791 ft | 8 kts | 163° |
| 2026-04-30 19:13 | 41.95914 | 21.62501 | 791 ft | 6 kts | 166° |
| 2026-04-30 19:14 | 41.95875 | 21.62514 | 790 ft | 6 kts | 165° |
| 2026-04-30 19:14 | 41.95835 | 21.62528 | 789 ft | 6 kts | 165° |
| 2026-04-30 19:14 | 41.95795 | 21.62542 | 789 ft | 6 kts | 166° |
| 2026-04-30 19:14 | 41.95722 | 21.62566 | 787 ft | 16 kts | 166° |
| 2026-04-30 19:15 | 41.95617 | 21.62605 | 785 ft | 15 kts | 165° |
| 2026-04-30 19:15 | 41.95436 | 21.62670 | 783 ft | 13 kts | 164° |
| 2026-04-30 19:15 | 41.95342 | 21.62702 | 782 ft | 17 kts | 167° |
| 2026-04-30 19:16 | 41.95219 | 21.62742 | 779 ft | 15 kts | 162° |
| 2026-04-30 19:16 | 41.95201 | 21.62748 | 779 ft | 0 kts | 166° |
| 2026-04-30 19:17 | 41.95167 | 21.62747 | 778 ft | 10 kts | 199° |
| 2026-04-30 19:17 | 41.95138 | 21.62682 | 778 ft | 0 kts | 255° |
| 2026-04-30 19:18 | 41.95138 | 21.62681 | 778 ft | 1 kts | 255° |
| 2026-04-30 19:18 | 41.95124 | 21.62612 | 778 ft | 14 kts | 255° |
| 2026-04-30 19:19 | 41.95118 | 21.62507 | 779 ft | 2 kts | 324° |
| 2026-04-30 19:19 | 41.95120 | 21.62508 | 779 ft | 0 kts | 343° |
| 2026-04-30 19:20 | 41.95244 | 21.62464 | 781 ft | 52 kts | 345° |
| 2026-04-30 19:20 | 41.95825 | 21.62261 | 786 ft | 117 kts | 345° |
| 2026-04-30 19:20 | 41.97813 | 21.61593 | 1568 ft | 152 kts | 345° |
| 2026-04-30 19:21 | 41.98842 | 21.61267 | 2251 ft | 152 kts | 345° |
| 2026-04-30 19:21 | 42.00911 | 21.60569 | 3679 ft | 154 kts | 346° |
| 2026-04-30 19:22 | 42.02948 | 21.59804 | 5051 ft | 150 kts | 345° |
| 2026-04-30 19:22 | 42.03177 | 21.55698 | 6304 ft | 211 kts | 221° |
| 2026-04-30 19:23 | 41.98918 | 21.53158 | 7085 ft | 250 kts | 237° |
| 2026-04-30 19:24 | 41.97053 | 21.48796 | 7720 ft | 286 kts | 244° |
| 2026-04-30 19:24 | 41.96089 | 21.46439 | 8451 ft | 289 kts | 243° |
| 2026-04-30 19:24 | 41.94134 | 21.41699 | 10122 ft | 291 kts | 242° |
| 2026-04-30 19:25 | 41.90873 | 21.33861 | 11109 ft | 341 kts | 242° |
| 2026-04-30 19:26 | 41.88516 | 21.28261 | 12431 ft | 347 kts | 242° |
| 2026-04-30 19:26 | 41.86113 | 21.22576 | 13777 ft | 353 kts | 243° |
| 2026-04-30 19:26 | 41.84899 | 21.19695 | 14411 ft | 356 kts | 243° |
| 2026-04-30 19:27 | 41.82446 | 21.13887 | 15623 ft | 359 kts | 243° |
| 2026-04-30 19:27 | 41.80425 | 21.07796 | 16779 ft | 359 kts | 255° |
| 2026-04-30 19:28 | 41.79662 | 21.04600 | 17399 ft | 360 kts | 255° |
| 2026-04-30 19:28 | 41.78116 | 20.98219 | 18599 ft | 364 kts | 255° |
| 2026-04-30 19:29 | 41.76533 | 20.91742 | 19705 ft | 367 kts | 255° |
| 2026-04-30 19:29 | 41.75738 | 20.88492 | 20268 ft | 367 kts | 255° |
| 2026-04-30 19:30 | 41.73349 | 20.78717 | 21918 ft | 369 kts | 255° |
| 2026-04-30 19:30 | 41.71733 | 20.72168 | 22946 ft | 371 kts | 255° |
| 2026-04-30 19:31 | 41.70106 | 20.65591 | 23889 ft | 374 kts | 255° |
| 2026-04-30 19:31 | 41.69289 | 20.62283 | 24232 ft | 374 kts | 256° |
| 2026-04-30 19:31 | 41.69025 | 20.55462 | 24968 ft | 371 kts | 284° |
| 2026-04-30 19:32 | 41.69977 | 20.52248 | 25314 ft | 375 kts | 298° |
| 2026-04-30 19:32 | 41.71599 | 20.49490 | 25684 ft | 382 kts | 313° |
| 2026-04-30 19:32 | 41.73769 | 20.47381 | 26039 ft | 389 kts | 323° |
| 2026-04-30 19:32 | 41.76079 | 20.45464 | 26393 ft | 391 kts | 323° |
| 2026-04-30 19:33 | 41.78395 | 20.43547 | 26740 ft | 393 kts | 323° |
| 2026-04-30 19:33 | 41.80729 | 20.41617 | 27084 ft | 395 kts | 323° |
| 2026-04-30 19:33 | 41.83066 | 20.39680 | 27412 ft | 396 kts | 323° |
| 2026-04-30 19:33 | 41.85410 | 20.37731 | 27735 ft | 397 kts | 323° |
| 2026-04-30 19:34 | 41.87764 | 20.35769 | 28038 ft | 399 kts | 323° |
| 2026-04-30 19:34 | 41.90130 | 20.33793 | 28337 ft | 401 kts | 323° |
| 2026-04-30 19:34 | 41.94892 | 20.29815 | 28922 ft | 404 kts | 323° |
| 2026-04-30 19:35 | 41.97283 | 20.27818 | 29193 ft | 406 kts | 323° |
| 2026-04-30 19:35 | 41.99689 | 20.25805 | 29437 ft | 408 kts | 323° |
| 2026-04-30 19:35 | 42.02101 | 20.23781 | 29707 ft | 410 kts | 323° |
| 2026-04-30 19:35 | 42.04525 | 20.21747 | 29970 ft | 411 kts | 323° |
| 2026-04-30 19:36 | 42.06957 | 20.19707 | 30223 ft | 413 kts | 323° |
| 2026-04-30 19:36 | 42.09406 | 20.17654 | 30437 ft | 415 kts | 323° |
| 2026-04-30 19:36 | 42.14316 | 20.13530 | 30877 ft | 416 kts | 323° |
| 2026-04-30 19:37 | 42.16765 | 20.11469 | 31114 ft | 415 kts | 323° |
| 2026-04-30 19:37 | 42.19210 | 20.09408 | 31359 ft | 415 kts | 323° |
| 2026-04-30 19:37 | 42.21656 | 20.07342 | 31587 ft | 415 kts | 323° |
| 2026-04-30 19:37 | 42.24100 | 20.05271 | 31828 ft | 414 kts | 323° |
| 2026-04-30 19:38 | 42.26539 | 20.03206 | 32093 ft | 414 kts | 323° |
| 2026-04-30 19:38 | 42.28983 | 20.01141 | 32356 ft | 413 kts | 323° |
| 2026-04-30 19:38 | 42.31421 | 19.99081 | 32570 ft | 413 kts | 323° |
| 2026-04-30 19:38 | 42.33856 | 19.97017 | 32815 ft | 413 kts | 323° |
| 2026-04-30 19:39 | 42.36294 | 19.94949 | 33094 ft | 413 kts | 323° |
| 2026-04-30 19:39 | 42.38725 | 19.92886 | 33366 ft | 413 kts | 323° |
| 2026-04-30 19:39 | 42.41154 | 19.90825 | 33582 ft | 412 kts | 323° |
| 2026-04-30 19:39 | 42.43582 | 19.88757 | 33830 ft | 413 kts | 323° |
| 2026-04-30 19:40 | 42.46123 | 19.86909 | 34072 ft | 418 kts | 332° |
| 2026-04-30 19:40 | 42.48902 | 19.85681 | 34292 ft | 424 kts | 342° |
| 2026-04-30 19:40 | 42.51854 | 19.85142 | 34485 ft | 433 kts | 352° |
| 2026-04-30 19:40 | 42.54878 | 19.85155 | 34690 ft | 435 kts | 355° |
| 2026-04-30 19:41 | 42.57906 | 19.85185 | 34881 ft | 434 kts | 352° |
| 2026-04-30 19:41 | 42.60878 | 19.84737 | 35027 ft | 426 kts | 342° |
| 2026-04-30 19:41 | 42.63691 | 19.83592 | 35167 ft | 419 kts | 333° |
| 2026-04-30 19:41 | 42.66275 | 19.81818 | 35328 ft | 414 kts | 323° |
| 2026-04-30 19:42 | 42.68549 | 19.79527 | 35497 ft | 411 kts | 315° |
| 2026-04-30 19:42 | 42.70564 | 19.76784 | 35646 ft | 409 kts | 311° |
| 2026-04-30 19:42 | 42.72529 | 19.73983 | 35792 ft | 410 kts | 311° |
| 2026-04-30 19:42 | 42.74498 | 19.71176 | 35929 ft | 410 kts | 311° |
| 2026-04-30 19:43 | 42.76473 | 19.68362 | 36059 ft | 411 kts | 311° |
| 2026-04-30 19:43 | 42.78444 | 19.65548 | 36219 ft | 411 kts | 311° |
| 2026-04-30 19:44 | 42.84355 | 19.57096 | 36297 ft | 410 kts | 311° |
| 2026-04-30 19:44 | 42.88292 | 19.51462 | 36297 ft | 410 kts | 311° |
| 2026-04-30 19:45 | 42.92229 | 19.45809 | 36305 ft | 411 kts | 311° |
| 2026-04-30 19:45 | 42.96163 | 19.40141 | 36300 ft | 411 kts | 311° |
| 2026-04-30 19:46 | 43.00093 | 19.34463 | 36302 ft | 411 kts | 311° |
| 2026-04-30 19:46 | 43.04026 | 19.28778 | 36311 ft | 412 kts | 311° |
| 2026-04-30 19:47 | 43.07957 | 19.23081 | 36303 ft | 412 kts | 311° |
| 2026-04-30 19:47 | 43.11896 | 19.17361 | 36311 ft | 412 kts | 311° |
| 2026-04-30 19:48 | 43.15829 | 19.11641 | 36317 ft | 413 kts | 311° |
| 2026-04-30 19:48 | 43.19763 | 19.05909 | 36327 ft | 413 kts | 311° |
| 2026-04-30 19:49 | 43.23710 | 19.00157 | 36312 ft | 414 kts | 311° |
| 2026-04-30 19:49 | 43.29625 | 18.91510 | 36329 ft | 415 kts | 311° |
| 2026-04-30 19:50 | 43.33566 | 18.85732 | 36314 ft | 415 kts | 311° |
| 2026-04-30 19:50 | 43.37511 | 18.79935 | 36324 ft | 415 kts | 311° |
| 2026-04-30 19:51 | 43.41440 | 18.74136 | 36305 ft | 415 kts | 311° |
| 2026-04-30 19:51 | 43.45349 | 18.68354 | 36309 ft | 415 kts | 311° |
| 2026-04-30 19:52 | 43.49279 | 18.62529 | 36311 ft | 416 kts | 311° |
| 2026-04-30 19:52 | 43.53219 | 18.56686 | 36316 ft | 416 kts | 311° |
| 2026-04-30 19:53 | 43.57163 | 18.50836 | 36320 ft | 417 kts | 312° |
| 2026-04-30 19:53 | 43.61107 | 18.44967 | 36324 ft | 417 kts | 312° |
| 2026-04-30 19:54 | 43.65052 | 18.39083 | 36325 ft | 417 kts | 311° |
| 2026-04-30 19:54 | 43.68993 | 18.33187 | 36325 ft | 417 kts | 312° |
| 2026-04-30 19:55 | 43.72932 | 18.27288 | 36325 ft | 418 kts | 312° |
| 2026-04-30 19:55 | 43.76871 | 18.21364 | 36327 ft | 418 kts | 312° |
| 2026-04-30 19:56 | 43.80811 | 18.15437 | 36328 ft | 419 kts | 312° |
| 2026-04-30 19:56 | 43.84752 | 18.09496 | 36330 ft | 419 kts | 312° |
| 2026-04-30 19:57 | 43.88703 | 18.03545 | 36333 ft | 419 kts | 312° |
| 2026-04-30 19:57 | 43.92644 | 17.97576 | 36331 ft | 419 kts | 312° |
| 2026-04-30 19:58 | 43.96580 | 17.91595 | 36333 ft | 420 kts | 312° |
| 2026-04-30 19:58 | 43.99852 | 17.86613 | 36338 ft | 420 kts | 312° |
| 2026-04-30 19:59 | 44.03791 | 17.80615 | 36348 ft | 421 kts | 312° |
| 2026-04-30 20:00 | 44.09719 | 17.71584 | 36352 ft | 421 kts | 312° |
| 2026-04-30 20:00 | 44.13658 | 17.65543 | 36360 ft | 422 kts | 312° |
| 2026-04-30 20:01 | 44.19572 | 17.56459 | 36370 ft | 422 kts | 312° |
| 2026-04-30 20:01 | 44.23515 | 17.50398 | 36372 ft | 422 kts | 312° |
| 2026-04-30 20:02 | 44.29420 | 17.41283 | 36377 ft | 422 kts | 312° |
| 2026-04-30 20:03 | 44.35316 | 17.32134 | 36378 ft | 422 kts | 312° |
| 2026-04-30 20:03 | 44.39251 | 17.26025 | 36378 ft | 423 kts | 312° |
| 2026-04-30 20:04 | 44.43165 | 17.19948 | 36377 ft | 423 kts | 312° |
| 2026-04-30 20:05 | 44.49056 | 17.10750 | 36380 ft | 423 kts | 312° |
| 2026-04-30 20:05 | 44.54948 | 17.01536 | 36382 ft | 423 kts | 312° |
| 2026-04-30 20:06 | 44.58872 | 16.95368 | 36372 ft | 424 kts | 312° |
| 2026-04-30 20:06 | 44.62792 | 16.89194 | 36370 ft | 424 kts | 312° |
| 2026-04-30 20:07 | 44.66721 | 16.83002 | 36370 ft | 424 kts | 313° |
| 2026-04-30 20:08 | 44.72641 | 16.73660 | 36373 ft | 425 kts | 313° |
| 2026-04-30 20:08 | 44.76567 | 16.67446 | 36369 ft | 425 kts | 313° |
| 2026-04-30 20:09 | 44.80485 | 16.61209 | 36369 ft | 425 kts | 313° |
| 2026-04-30 20:09 | 44.86363 | 16.51829 | 36375 ft | 426 kts | 313° |
| 2026-04-30 20:10 | 44.92244 | 16.42429 | 36376 ft | 426 kts | 313° |
| 2026-04-30 20:11 | 44.98117 | 16.33001 | 36367 ft | 426 kts | 313° |
| 2026-04-30 20:11 | 45.02022 | 16.26764 | 36372 ft | 426 kts | 313° |
| 2026-04-30 20:12 | 45.07995 | 16.17427 | 36369 ft | 426 kts | 314° |
| 2026-04-30 20:13 | 45.11970 | 16.11196 | 36374 ft | 427 kts | 314° |
| 2026-04-30 20:13 | 45.15961 | 16.04898 | 36379 ft | 427 kts | 314° |
| 2026-04-30 20:14 | 45.19899 | 15.98669 | 36374 ft | 427 kts | 314° |
| 2026-04-30 20:14 | 45.23857 | 15.92383 | 36371 ft | 427 kts | 314° |
| 2026-04-30 20:15 | 45.27816 | 15.86091 | 36380 ft | 427 kts | 314° |
| 2026-04-30 20:15 | 45.31773 | 15.79784 | 36377 ft | 428 kts | 314° |
| 2026-04-30 20:16 | 45.35730 | 15.73471 | 36382 ft | 428 kts | 314° |
| 2026-04-30 20:16 | 45.39689 | 15.67147 | 36382 ft | 428 kts | 314° |
| 2026-04-30 20:17 | 45.43643 | 15.60799 | 36383 ft | 428 kts | 314° |
| 2026-04-30 20:17 | 45.47589 | 15.54448 | 36385 ft | 428 kts | 314° |
| 2026-04-30 20:18 | 45.51541 | 15.48085 | 36384 ft | 428 kts | 314° |
| 2026-04-30 20:18 | 45.55487 | 15.41716 | 36380 ft | 428 kts | 314° |
| 2026-04-30 20:19 | 45.59424 | 15.35339 | 36382 ft | 428 kts | 314° |
| 2026-04-30 20:19 | 45.63364 | 15.28943 | 36378 ft | 428 kts | 314° |
| 2026-04-30 20:20 | 45.67300 | 15.22547 | 36379 ft | 429 kts | 314° |
| 2026-04-30 20:20 | 45.71243 | 15.16132 | 36378 ft | 429 kts | 314° |
| 2026-04-30 20:21 | 45.75179 | 15.09713 | 36373 ft | 429 kts | 314° |
| 2026-04-30 20:21 | 45.79114 | 15.03280 | 36367 ft | 429 kts | 314° |
| 2026-04-30 20:22 | 45.83040 | 14.96825 | 36366 ft | 430 kts | 314° |
| 2026-04-30 20:22 | 45.86971 | 14.90353 | 36367 ft | 430 kts | 314° |
| 2026-04-30 20:23 | 45.90901 | 14.83872 | 36365 ft | 430 kts | 314° |
| 2026-04-30 20:23 | 45.94828 | 14.77382 | 36367 ft | 430 kts | 314° |
| 2026-04-30 20:24 | 45.98754 | 14.70872 | 36371 ft | 431 kts | 314° |
| 2026-04-30 20:24 | 46.02676 | 14.64357 | 36375 ft | 431 kts | 314° |
| 2026-04-30 20:25 | 46.08563 | 14.54562 | 36381 ft | 431 kts | 314° |
| 2026-04-30 20:26 | 46.14446 | 14.44744 | 36379 ft | 431 kts | 314° |
| 2026-04-30 20:26 | 46.20304 | 14.34888 | 36375 ft | 431 kts | 315° |
| 2026-04-30 20:27 | 46.28089 | 14.21778 | 36367 ft | 432 kts | 315° |
| 2026-04-30 20:28 | 46.35901 | 14.08561 | 36354 ft | 432 kts | 315° |
| 2026-04-30 20:30 | 46.45650 | 13.91978 | 36339 ft | 433 kts | 315° |
| 2026-04-30 20:31 | 46.57360 | 13.71917 | 36342 ft | 434 kts | 315° |
| 2026-04-30 20:32 | 46.67099 | 13.55111 | 36345 ft | 435 kts | 315° |
| 2026-04-30 20:33 | 46.72935 | 13.44993 | 36341 ft | 435 kts | 315° |
| 2026-04-30 20:34 | 46.78767 | 13.34841 | 36339 ft | 435 kts | 315° |
| 2026-04-30 20:35 | 46.84585 | 13.24683 | 36325 ft | 434 kts | 316° |
| 2026-04-30 20:35 | 46.90372 | 13.14556 | 36321 ft | 434 kts | 316° |
| 2026-04-30 20:36 | 46.94240 | 13.07762 | 36315 ft | 435 kts | 316° |
| 2026-04-30 20:37 | 47.00039 | 12.97535 | 36314 ft | 435 kts | 316° |
| 2026-04-30 20:37 | 47.03903 | 12.90704 | 36314 ft | 435 kts | 316° |
| 2026-04-30 20:38 | 47.07761 | 12.83862 | 36305 ft | 435 kts | 316° |
| 2026-04-30 20:38 | 47.11616 | 12.77001 | 36307 ft | 436 kts | 316° |
| 2026-04-30 20:39 | 47.17403 | 12.66687 | 36312 ft | 436 kts | 316° |
| 2026-04-30 20:40 | 47.22530 | 12.57513 | 36313 ft | 436 kts | 316° |
| 2026-04-30 20:40 | 47.26380 | 12.50592 | 36319 ft | 437 kts | 316° |
| 2026-04-30 20:41 | 47.32148 | 12.40199 | 36322 ft | 437 kts | 316° |
| 2026-04-30 20:41 | 47.35996 | 12.33257 | 36333 ft | 437 kts | 316° |
| 2026-04-30 20:42 | 47.39810 | 12.26359 | 36339 ft | 437 kts | 316° |
| 2026-04-30 20:43 | 47.45557 | 12.15915 | 36339 ft | 436 kts | 316° |
| 2026-04-30 20:43 | 47.49377 | 12.08952 | 36341 ft | 436 kts | 316° |
| 2026-04-30 20:44 | 47.52934 | 12.01627 | 36340 ft | 447 kts | 304° |
| 2026-04-30 20:44 | 47.54140 | 11.97351 | 36343 ft | 456 kts | 294° |
| 2026-04-30 20:45 | 47.56710 | 11.78722 | 36339 ft | 463 kts | 288° |
| 2026-04-30 20:45 | 47.57944 | 11.69366 | 36341 ft | 464 kts | 288° |
| 2026-04-30 20:46 | 47.60368 | 11.50587 | 36347 ft | 464 kts | 287° |
| 2026-04-30 20:47 | 47.62158 | 11.36512 | 36339 ft | 462 kts | 287° |
| 2026-04-30 20:48 | 47.63937 | 11.22470 | 36336 ft | 462 kts | 287° |
| 2026-04-30 20:48 | 47.65102 | 11.13184 | 36337 ft | 461 kts | 287° |
| 2026-04-30 20:49 | 47.66267 | 11.03819 | 36335 ft | 462 kts | 287° |
| 2026-04-30 20:50 | 47.68002 | 10.89793 | 35466 ft | 465 kts | 287° |
| 2026-04-30 20:50 | 47.68585 | 10.85050 | 34588 ft | 470 kts | 287° |
| 2026-04-30 20:50 | 47.69165 | 10.80279 | 33955 ft | 468 kts | 286° |
| 2026-04-30 20:50 | 47.69736 | 10.75542 | 33377 ft | 464 kts | 286° |
| 2026-04-30 20:51 | 47.70302 | 10.70844 | 32796 ft | 460 kts | 286° |
| 2026-04-30 20:51 | 47.71419 | 10.61531 | 31655 ft | 455 kts | 286° |
| 2026-04-30 20:51 | 47.71973 | 10.56927 | 31087 ft | 453 kts | 286° |
| 2026-04-30 20:52 | 47.72524 | 10.52340 | 30532 ft | 451 kts | 286° |
| 2026-04-30 20:52 | 47.73072 | 10.47751 | 29914 ft | 449 kts | 285° |
| 2026-04-30 20:52 | 47.74136 | 10.38708 | 28832 ft | 441 kts | 285° |
| 2026-04-30 20:53 | 47.74516 | 10.34191 | 28300 ft | 441 kts | 277° |
| 2026-04-30 20:53 | 47.74476 | 10.29641 | 27810 ft | 440 kts | 272° |
| 2026-04-30 20:53 | 47.74377 | 10.25116 | 27307 ft | 436 kts | 272° |
| 2026-04-30 20:54 | 47.74167 | 10.16185 | 26351 ft | 429 kts | 272° |
| 2026-04-30 20:54 | 47.74062 | 10.11775 | 25868 ft | 425 kts | 272° |
| 2026-04-30 20:54 | 47.73957 | 10.07397 | 25398 ft | 422 kts | 271° |
| 2026-04-30 20:55 | 47.73741 | 9.98777 | 24451 ft | 417 kts | 271° |
| 2026-04-30 20:55 | 47.73633 | 9.94484 | 23973 ft | 414 kts | 271° |
| 2026-04-30 20:55 | 47.73525 | 9.90223 | 23441 ft | 412 kts | 271° |
| 2026-04-30 20:56 | 47.73308 | 9.81794 | 22495 ft | 405 kts | 271° |
| 2026-04-30 20:56 | 47.73203 | 9.77632 | 22026 ft | 402 kts | 271° |
| 2026-04-30 20:56 | 47.72988 | 9.69374 | 21087 ft | 397 kts | 271° |
| 2026-04-30 20:57 | 47.72877 | 9.65280 | 20620 ft | 395 kts | 270° |
| 2026-04-30 20:57 | 47.72761 | 9.61211 | 20154 ft | 393 kts | 270° |
| 2026-04-30 20:57 | 47.72641 | 9.57208 | 19691 ft | 392 kts | 269° |
| 2026-04-30 20:58 | 47.70732 | 9.49731 | 18789 ft | 393 kts | 235° |
| 2026-04-30 20:58 | 47.69138 | 9.46439 | 18309 ft | 392 kts | 234° |
| 2026-04-30 20:58 | 47.67534 | 9.43171 | 17801 ft | 391 kts | 234° |
| 2026-04-30 20:58 | 47.65940 | 9.39918 | 17302 ft | 389 kts | 234° |
| 2026-04-30 20:59 | 47.62768 | 9.33432 | 16286 ft | 388 kts | 234° |
| 2026-04-30 20:59 | 47.61192 | 9.30195 | 15783 ft | 387 kts | 234° |
| 2026-04-30 21:00 | 47.58057 | 9.23733 | 14806 ft | 385 kts | 234° |
| 2026-04-30 21:00 | 47.54960 | 9.17314 | 13828 ft | 381 kts | 234° |
| 2026-04-30 21:01 | 47.51902 | 9.10975 | 12818 ft | 375 kts | 234° |
| 2026-04-30 21:01 | 47.50387 | 9.07843 | 12310 ft | 373 kts | 234° |
| 2026-04-30 21:01 | 47.47396 | 9.01678 | 11326 ft | 366 kts | 234° |
| 2026-04-30 21:02 | 47.45917 | 8.98636 | 10843 ft | 363 kts | 234° |
| 2026-04-30 21:02 | 47.44450 | 8.95626 | 10369 ft | 359 kts | 234° |
| 2026-04-30 21:02 | 47.43022 | 8.92697 | 10221 ft | 337 kts | 234° |
| 2026-04-30 21:02 | 47.41715 | 8.90014 | 10211 ft | 309 kts | 233° |
| 2026-04-30 21:03 | 47.40266 | 8.87779 | 10192 ft | 298 kts | 213° |
| 2026-04-30 21:03 | 47.38477 | 8.86304 | 9656 ft | 292 kts | 205° |
| 2026-04-30 21:03 | 47.36651 | 8.85023 | 9015 ft | 290 kts | 204° |
| 2026-04-30 21:03 | 47.34817 | 8.83763 | 8629 ft | 288 kts | 204° |
| 2026-04-30 21:04 | 47.33007 | 8.82527 | 8268 ft | 286 kts | 204° |
| 2026-04-30 21:04 | 47.31208 | 8.81307 | 7900 ft | 283 kts | 204° |
| 2026-04-30 21:04 | 47.27649 | 8.78904 | 7171 ft | 280 kts | 204° |
| 2026-04-30 21:05 | 47.26022 | 8.77407 | 6727 ft | 275 kts | 225° |
| 2026-04-30 21:05 | 47.25018 | 8.75074 | 6161 ft | 269 kts | 249° |
| 2026-04-30 21:05 | 47.24486 | 8.72500 | 5808 ft | 256 kts | 261° |
| 2026-04-30 21:05 | 47.24711 | 8.70020 | 5510 ft | 244 kts | 300° |
| 2026-04-30 21:06 | 47.25895 | 8.68340 | 5246 ft | 238 kts | 334° |
| 2026-04-30 21:06 | 47.27411 | 8.67351 | 5068 ft | 236 kts | 338° |
| 2026-04-30 21:06 | 47.28875 | 8.66408 | 5032 ft | 223 kts | 336° |
| 2026-04-30 21:06 | 47.30266 | 8.65468 | 4902 ft | 218 kts | 336° |
| 2026-04-30 21:07 | 47.31624 | 8.64540 | 4653 ft | 209 kts | 337° |
| 2026-04-30 21:07 | 47.32899 | 8.63666 | 4350 ft | 196 kts | 337° |
| 2026-04-30 21:07 | 47.34119 | 8.62831 | 4057 ft | 190 kts | 338° |
| 2026-04-30 21:07 | 47.35269 | 8.62042 | 3808 ft | 173 kts | 338° |
| 2026-04-30 21:08 | 47.36324 | 8.61319 | 3547 ft | 163 kts | 339° |
| 2026-04-30 21:08 | 47.37342 | 8.60622 | 3302 ft | 160 kts | 339° |
| 2026-04-30 21:08 | 47.38329 | 8.59945 | 3068 ft | 153 kts | 340° |
| 2026-04-30 21:08 | 47.39263 | 8.59308 | 2914 ft | 148 kts | 341° |
| 2026-04-30 21:09 | 47.40199 | 8.58659 | 2665 ft | 148 kts | 341° |
| 2026-04-30 21:09 | 47.41130 | 8.58039 | 2464 ft | 147 kts | 338° |
| 2026-04-30 21:09 | 47.42059 | 8.57386 | 2178 ft | 148 kts | 338° |
| 2026-04-30 21:09 | 47.42987 | 8.56748 | 1908 ft | 145 kts | 339° |
| 2026-04-30 21:10 | 47.43890 | 8.56125 | 1677 ft | 142 kts | 339° |
| 2026-04-30 21:10 | 47.44783 | 8.55511 | 1465 ft | 141 kts | 338° |
| 2026-04-30 21:10 | 47.45622 | 8.54939 | 1407 ft | 119 kts | 336° |
| 2026-04-30 21:10 | 47.46214 | 8.54534 | 1398 ft | 63 kts | 334° |
| 2026-04-30 21:11 | 47.46411 | 8.54419 | 1402 ft | 14 kts | 10° |
| 2026-04-30 21:11 | 47.46459 | 8.54507 | 1398 ft | 7 kts | 65° |
| 2026-04-30 21:11 | 47.46480 | 8.54573 | 1401 ft | 7 kts | 69° |
| 2026-04-30 21:11 | 47.46466 | 8.54632 | 1404 ft | 6 kts | 139° |
| 2026-04-30 21:12 | 47.46435 | 8.54655 | 1398 ft | 4 kts | 157° |
| 2026-04-30 21:12 | 47.46398 | 8.54678 | 1397 ft | 10 kts | 156° |
| 2026-04-30 21:12 | 47.46315 | 8.54758 | 1397 ft | 15 kts | 121° |
| 2026-04-30 21:12 | 47.46297 | 8.54916 | 1404 ft | 16 kts | 95° |
| 2026-04-30 21:13 | 47.46285 | 8.55090 | 1397 ft | 18 kts | 96° |
| 2026-04-30 21:13 | 47.46271 | 8.55276 | 1397 ft | 13 kts | 96° |
| 2026-04-30 21:13 | 47.46309 | 8.55316 | 1405 ft | 6 kts | 4° |
| 2026-04-30 21:13 | 47.46329 | 8.55319 | 1403 ft | 1 kts | 5° |
| 2026-04-30 21:14 | 47.46333 | 8.55320 | 1401 ft | 0 kts | 6° |
| 2026-04-30 21:21 | 47.46334 | 8.55320 | 1401 ft | 0 kts | 6° |